Time;durP1;ratioP1;P1;durP2;ratioP2;P2;SDS_P1;SDS_P2;PMS_P1;PMS_P2;Temp;Humidity;BMP_temperature;BMP_pressure;BME280_temperature;BME280_humidity;BME280_pressure;Samples;Min_cycle;Max_cycle;Signal;HPM_P1;HPM_P2
2022/05/31 00:00:11;;;;;;;1.15;1.13;;;10.20;99.90;;;;;;5221292;28;20023;-78
2022/05/31 00:02:43;;;;;;;2.92;1.50;;;10.20;99.90;;;;;;5216093;28;20027;-74
2022/05/31 00:05:16;;;;;;;0.90;0.88;;;10.10;99.90;;;;;;5209223;28;20041;-75
2022/05/31 00:07:52;;;;;;;1.53;1.43;;;10.10;99.90;;;;;;5223814;28;20027;-77
2022/05/31 00:10:33;;;;;;;1.88;1.10;;;10.10;99.90;;;;;;5223062;28;20027;-75
2022/05/31 00:13:08;;;;;;;1.00;1.00;;;10.00;99.90;;;;;;5211577;28;20322;-78
2022/05/31 00:15:39;;;;;;;1.30;1.20;;;10.00;99.90;;;;;;5231135;28;20456;-77
2022/05/31 00:18:13;;;;;;;0.77;0.77;;;10.00;99.90;;;;;;5228736;28;20059;-77
2022/05/31 00:20:47;;;;;;;2.47;1.08;;;9.90;99.90;;;;;;5212247;28;20028;-76
2022/05/31 00:23:20;;;;;;;2.25;2.10;;;10.00;99.90;;;;;;5230328;28;20468;-79
2022/05/31 00:25:51;;;;;;;1.13;1.10;;;10.00;99.90;;;;;;5229492;28;20114;-75
2022/05/31 00:28:25;;;;;;;1.17;1.08;;;9.90;99.90;;;;;;5229383;28;20449;-76
2022/05/31 00:30:57;;;;;;;1.00;1.00;;;9.80;99.90;;;;;;5228538;28;20027;-77
2022/05/31 00:33:32;;;;;;;1.08;1.08;;;9.80;99.90;;;;;;5227126;28;20035;-78
2022/05/31 00:36:04;;;;;;;1.02;1.02;;;9.80;99.90;;;;;;5212049;28;20515;-76
2022/05/31 00:38:40;;;;;;;0.95;0.95;;;9.80;99.90;;;;;;5207228;28;20037;-77
2022/05/31 00:41:23;;;;;;;3.13;1.00;;;9.70;99.90;;;;;;5207732;28;20036;-78
2022/05/31 00:43:59;;;;;;;1.10;1.10;;;9.80;99.90;;;;;;5242230;28;20028;-75
2022/05/31 00:46:58;;;;;;;0.90;0.90;;;9.70;99.90;;;;;;5217204;28;20043;-75
2022/05/31 00:49:57;;;;;;;1.00;1.00;;;9.80;99.90;;;;;;5208260;28;20235;-78
2022/05/31 00:52:46;;;;;;;0.77;0.77;;;9.80;99.90;;;;;;5206799;28;20562;-76
2022/05/31 00:55:20;;;;;;;0.80;0.80;;;9.70;99.90;;;;;;5209034;28;20017;-78
2022/05/31 00:58:21;;;;;;;1.00;1.00;;;9.70;99.90;;;;;;5219220;28;20016;-77
2022/05/31 01:00:52;;;;;;;0.80;0.80;;;9.60;99.90;;;;;;5227199;28;20027;-78
2022/05/31 01:03:24;;;;;;;1.10;1.10;;;9.50;99.90;;;;;;5220798;28;20020;-76
2022/05/31 01:05:59;;;;;;;1.23;1.23;;;9.50;99.90;;;;;;5211035;28;20543;-79
2022/05/31 01:08:31;;;;;;;1.05;1.05;;;9.50;99.90;;;;;;5219405;28;20025;-74
2022/05/31 01:11:04;;;;;;;0.70;0.70;;;9.40;99.90;;;;;;5214116;28;20024;-75
2022/05/31 01:13:35;;;;;;;1.10;1.10;;;9.50;99.90;;;;;;5228784;28;20025;-77
2022/05/31 01:16:10;;;;;;;0.80;0.80;;;9.40;99.90;;;;;;5229814;28;20017;-77
2022/05/31 01:18:43;;;;;;;;;;;9.40;99.90;;;;;;5211797;28;20040;-75
2022/05/31 01:21:20;;;;;;;1.10;1.00;;;9.40;99.90;;;;;;5211346;28;19901;-78
2022/05/31 01:24:12;;;;;;;0.90;0.90;;;9.30;99.90;;;;;;5195454;28;20339;-74
2022/05/31 01:26:50;;;;;;;1.00;1.00;;;9.40;99.90;;;;;;5228370;28;20021;-73
2022/05/31 01:29:26;;;;;;;1.10;1.10;;;9.30;99.90;;;;;;5226052;28;20021;-76
2022/05/31 01:32:07;;;;;;;1.67;1.30;;;9.30;99.90;;;;;;5227730;28;20017;-76
2022/05/31 01:35:00;;;;;;;0.95;0.95;;;9.10;99.90;;;;;;5225758;28;20028;-77
2022/05/31 01:37:34;;;;;;;1.25;1.15;;;9.00;99.90;;;;;;5218330;28;20523;-78
2022/05/31 01:40:13;;;;;;;1.25;1.23;;;9.00;99.90;;;;;;5226318;28;20025;-78
2022/05/31 01:42:46;;;;;;;0.90;0.90;;;9.00;99.90;;;;;;5191154;28;20038;-79
2022/05/31 01:45:26;;;;;;;0.90;0.90;;;9.00;99.90;;;;;;5190925;28;20041;-76
2022/05/31 01:48:06;;;;;;;1.33;1.23;;;9.00;99.90;;;;;;5222430;28;20025;-77
2022/05/31 01:50:40;;;;;;;0.98;0.98;;;9.00;99.90;;;;;;5226716;28;20498;-77
2022/05/31 01:53:17;;;;;;;1.05;1.05;;;9.00;99.90;;;;;;5190684;28;20036;-77
2022/05/31 01:55:52;;;;;;;1.50;1.40;;;8.90;99.90;;;;;;5213229;28;20241;-77
2022/05/31 01:58:29;;;;;;;1.33;1.23;;;8.90;99.90;;;;;;5232825;28;20043;-76
2022/05/31 02:01:02;;;;;;;0.90;0.90;;;8.90;99.90;;;;;;5207474;28;20318;-75
2022/05/31 02:03:41;;;;;;;2.47;0.70;;;8.80;99.90;;;;;;5210005;28;20031;-76
2022/05/31 02:06:27;;;;;;;1.30;0.90;;;8.70;99.90;;;;;;5217384;28;20079;-79
2022/05/31 02:08:59;;;;;;;0.98;0.98;;;8.60;99.90;;;;;;5227785;28;20033;-77
2022/05/31 02:11:32;;;;;;;1.17;1.08;;;8.60;99.90;;;;;;5211673;28;20100;-74
2022/05/31 02:14:05;;;;;;;1.13;1.13;;;8.60;99.90;;;;;;5210776;28;20441;-77
2022/05/31 02:16:38;;;;;;;0.82;0.82;;;8.60;99.90;;;;;;5229198;28;20032;-76
2022/05/31 02:19:17;;;;;;;1.40;1.30;;;8.60;99.90;;;;;;5228147;28;20521;-77
2022/05/31 02:21:53;;;;;;;0.90;0.90;;;8.60;99.90;;;;;;5228613;28;20029;-76
2022/05/31 02:24:31;;;;;;;0.85;0.85;;;8.60;99.90;;;;;;5228746;28;20020;-76
2022/05/31 02:27:03;;;;;;;1.60;1.52;;;8.50;99.90;;;;;;5211656;28;20035;-78
2022/05/31 02:29:39;;;;;;;2.08;1.30;;;8.40;99.90;;;;;;5209858;28;20333;-77
2022/05/31 02:32:14;;;;;;;0.88;0.88;;;8.40;99.90;;;;;;5212117;28;20019;-76
2022/05/31 02:34:50;;;;;;;1.85;1.55;;;8.50;99.90;;;;;;5209867;28;20031;-77
2022/05/31 02:37:24;;;;;;;1.40;1.30;;;8.50;99.90;;;;;;5215148;28;20031;-75
2022/05/31 02:40:01;;;;;;;1.75;1.65;;;8.50;99.90;;;;;;5216280;28;20021;-78
2022/05/31 02:42:42;;;;;;;1.92;1.83;;;8.50;99.90;;;;;;5233086;28;20516;-76
2022/05/31 02:45:14;;;;;;;0.95;0.95;;;8.50;99.90;;;;;;5232394;28;20025;-77
2022/05/31 02:47:47;;;;;;;2.03;1.42;;;8.40;99.90;;;;;;5210128;28;20034;-76
2022/05/31 02:50:21;;;;;;;1.88;1.05;;;8.40;99.90;;;;;;5211304;28;20066;-75
2022/05/31 02:52:55;;;;;;;1.08;1.08;;;8.30;99.90;;;;;;5211240;28;20025;-75
2022/05/31 02:55:26;;;;;;;1.05;1.05;;;8.30;99.90;;;;;;5221135;28;20543;-80
2022/05/31 02:58:00;;;;;;;1.60;1.50;;;8.30;99.90;;;;;;5226108;28;20036;-79
2022/05/31 03:00:31;;;;;;;1.27;1.27;;;8.20;99.90;;;;;;5232112;28;20033;-77
2022/05/31 03:03:05;;;;;;;1.20;1.20;;;8.10;99.90;;;;;;5231811;28;20035;-77
2022/05/31 03:05:36;;;;;;;2.77;1.33;;;8.10;99.90;;;;;;5222353;28;20496;-74
2022/05/31 03:08:12;;;;;;;1.00;1.00;;;8.10;99.90;;;;;;5213854;28;20323;-77
2022/05/31 03:10:52;;;;;;;0.75;0.75;;;8.10;99.90;;;;;;5241158;28;20027;-75
2022/05/31 03:13:26;;;;;;;1.85;1.58;;;8.20;99.90;;;;;;5234449;28;20435;-77
2022/05/31 03:16:01;;;;;;;1.35;1.30;;;8.30;99.90;;;;;;5234280;28;20029;-73
2022/05/31 03:18:39;;;;;;;1.27;1.20;;;8.30;99.90;;;;;;5210148;28;20033;-76
2022/05/31 03:21:21;;;;;;;1.05;1.05;;;8.30;99.90;;;;;;5210159;28;20025;-75
2022/05/31 03:24:02;;;;;;;1.45;1.35;;;8.40;99.90;;;;;;5225751;28;20333;-76
2022/05/31 03:26:38;;;;;;;1.00;1.00;;;8.60;99.90;;;;;;5228011;28;20184;-76
2022/05/31 03:29:10;;;;;;;1.38;1.27;;;8.80;99.90;;;;;;5225969;28;20017;-75
2022/05/31 03:31:44;;;;;;;1.52;1.42;;;8.80;99.90;;;;;;5212772;28;20029;-77
2022/05/31 03:34:20;;;;;;;2.67;1.23;;;8.90;99.90;;;;;;5214675;28;20031;-75
2022/05/31 03:36:54;;;;;;;1.33;1.30;;;9.00;99.90;;;;;;5230710;28;20028;-75
2022/05/31 03:39:25;;;;;;;1.30;1.20;;;9.10;99.90;;;;;;5232074;28;20024;-76
2022/05/31 03:41:56;;;;;;;1.30;1.20;;;9.10;99.90;;;;;;5230269;28;20228;-76
2022/05/31 03:44:28;;;;;;;1.52;1.42;;;9.30;99.90;;;;;;5178845;28;20025;-77
2022/05/31 03:47:03;;;;;;;3.80;1.10;;;9.40;99.90;;;;;;5212369;28;20060;-75
2022/05/31 03:49:37;;;;;;;1.25;1.15;;;9.50;99.90;;;;;;5221881;28;20021;-76
2022/05/31 03:52:11;;;;;;;1.08;1.08;;;9.60;99.90;;;;;;5213917;28;20035;-74
2022/05/31 03:54:44;;;;;;;1.30;1.30;;;9.60;99.90;;;;;;5190582;28;20564;-75
2022/05/31 03:57:22;;;;;;;1.25;1.20;;;9.80;99.90;;;;;;5229495;28;20051;-78
2022/05/31 03:59:53;;;;;;;1.50;1.40;;;9.80;99.90;;;;;;5210971;28;20029;-76
2022/05/31 04:02:24;;;;;;;1.00;1.00;;;10.10;99.90;;;;;;5229223;28;20027;-76
2022/05/31 04:04:56;;;;;;;1.90;1.40;;;10.30;99.90;;;;;;5195891;28;20056;-77
2022/05/31 04:07:27;;;;;;;1.48;1.20;;;10.60;99.90;;;;;;5210152;28;20303;-76
2022/05/31 04:10:03;;;;;;;1.63;1.52;;;10.90;99.90;;;;;;5226286;28;20500;-77
2022/05/31 04:12:35;;;;;;;1.45;1.35;;;11.20;99.90;;;;;;5208894;28;20036;-76
2022/05/31 04:15:06;;;;;;;1.00;1.00;;;11.40;99.90;;;;;;5210804;28;20045;-76
2022/05/31 04:17:38;;;;;;;1.20;1.10;;;11.60;99.90;;;;;;5215578;28;20035;-76
2022/05/31 04:20:10;;;;;;;1.35;1.25;;;11.80;99.90;;;;;;5231499;28;20020;-76
2022/05/31 04:22:41;;;;;;;2.42;1.10;;;12.00;99.90;;;;;;5212698;28;20489;-76
2022/05/31 04:25:15;;;;;;;2.05;1.15;;;12.10;99.90;;;;;;5229723;28;20453;-77
2022/05/31 04:27:46;;;;;;;1.13;1.13;;;12.10;99.90;;;;;;5230771;28;20029;-79
2022/05/31 04:30:20;;;;;;;1.30;1.25;;;12.20;99.90;;;;;;5228650;28;20043;-77
2022/05/31 04:32:54;;;;;;;3.00;1.70;;;12.40;99.90;;;;;;5215091;28;20507;-78
2022/05/31 04:35:28;;;;;;;1.63;1.35;;;12.50;99.90;;;;;;5201405;28;20038;-81
2022/05/31 04:37:59;;;;;;;1.45;1.38;;;12.70;99.90;;;;;;5231613;28;20020;-77
2022/05/31 04:40:31;;;;;;;1.40;1.23;;;13.00;99.90;;;;;;5229050;28;20023;-78
2022/05/31 04:43:03;;;;;;;1.85;1.30;;;13.20;99.90;;;;;;5219583;28;20308;-78
2022/05/31 04:45:41;;;;;;;1.27;1.17;;;13.10;99.90;;;;;;5250089;28;20033;-77
2022/05/31 04:48:20;;;;;;;1.27;1.20;;;13.10;99.90;;;;;;5248732;28;20502;-78
2022/05/31 04:50:58;;;;;;;1.00;1.00;;;13.30;99.90;;;;;;5209549;28;20035;-78
2022/05/31 04:53:35;;;;;;;3.15;1.60;;;13.80;99.90;;;;;;5227776;28;20386;-79
2022/05/31 04:56:09;;;;;;;1.17;1.08;;;14.30;99.90;;;;;;5229877;28;20029;-76
2022/05/31 04:58:40;;;;;;;3.78;1.40;;;15.10;99.90;;;;;;5218400;28;20498;-75
2022/05/31 05:01:12;;;;;;;1.40;1.30;;;15.40;99.90;;;;;;5224032;28;20036;-77
2022/05/31 05:03:46;;;;;;;1.00;1.00;;;15.60;99.90;;;;;;5224339;28;20039;-78
2022/05/31 05:06:21;;;;;;;1.50;1.40;;;16.00;99.90;;;;;;5198020;28;20057;-78
2022/05/31 05:08:53;;;;;;;1.38;1.27;;;16.30;99.90;;;;;;5230972;28;20025;-78
2022/05/31 05:11:25;;;;;;;1.00;1.00;;;16.10;99.90;;;;;;5211156;28;20036;-79
2022/05/31 05:13:57;;;;;;;1.10;1.10;;;16.00;99.90;;;;;;5212688;28;20021;-79
2022/05/31 05:16:28;;;;;;;1.10;1.10;;;16.20;99.90;;;;;;5213609;28;20032;-76
2022/05/31 05:19:02;;;;;;;1.20;1.13;;;16.10;99.90;;;;;;5230446;28;20375;-80
2022/05/31 05:21:35;;;;;;;1.02;1.02;;;16.10;99.90;;;;;;5197443;28;20452;-78
2022/05/31 05:24:07;;;;;;;0.80;0.80;;;16.40;99.90;;;;;;5210022;28;20210;-79
2022/05/31 05:26:43;;;;;;;1.02;1.02;;;16.90;99.90;;;;;;5209993;28;20032;-77
2022/05/31 05:32:07;;;;;;;1.17;1.08;;;17.30;99.90;;;;;;5207394;28;20035;-77
2022/05/31 05:34:39;;;;;;;1.20;1.10;;;17.50;99.90;;;;;;5212903;28;20310;-80
2022/05/31 05:37:10;;;;;;;1.23;1.10;;;17.60;99.90;;;;;;5229651;28;20037;-76
2022/05/31 05:39:47;;;;;;;1.08;1.08;;;17.90;99.90;;;;;;5198770;28;20522;-78
2022/05/31 05:42:23;;;;;;;1.27;1.23;;;18.20;99.90;;;;;;5206039;28;20033;-77
2022/05/31 05:44:59;;;;;;;1.27;1.10;;;18.50;99.90;;;;;;5229982;28;20033;-78
2022/05/31 05:47:31;;;;;;;1.33;1.10;;;18.40;99.90;;;;;;5245108;28;20024;-77
2022/05/31 05:50:03;;;;;;;1.25;1.15;;;18.30;99.90;;;;;;5230064;28;20232;-77
2022/05/31 05:52:37;;;;;;;1.30;1.20;;;18.40;99.90;;;;;;5225863;28;20029;-77
2022/05/31 05:55:08;;;;;;;1.50;1.40;;;17.60;99.90;;;;;;5228389;28;20657;-78
2022/05/31 05:57:41;;;;;;;1.88;1.10;;;17.80;99.90;;;;;;5211262;28;20033;-79
2022/05/31 06:00:15;;;;;;;1.20;1.10;;;18.50;99.90;;;;;;5229809;28;20025;-77
2022/05/31 06:02:58;;;;;;;1.58;1.50;;;18.50;99.90;;;;;;5229113;28;20238;-77
2022/05/31 06:05:33;;;;;;;1.08;0.90;;;18.80;99.90;;;;;;5218341;28;20060;-79
2022/05/31 06:08:33;;;;;;;1.13;1.02;;;19.00;99.90;;;;;;5191795;28;20037;-77
2022/05/31 06:11:16;;;;;;;1.27;1.20;;;19.10;99.90;;;;;;5205779;28;20040;-77
2022/05/31 06:13:50;;;;;;;2.05;0.95;;;19.50;99.90;;;;;;5208368;28;20152;-75
2022/05/31 06:16:29;;;;;;;1.33;1.30;;;19.80;99.90;;;;;;5213190;28;20024;-78
2022/05/31 06:19:18;;;;;;;1.83;1.00;;;20.20;99.90;;;;;;5223713;28;20032;-78
2022/05/31 06:21:56;;;;;;;1.17;1.08;;;20.50;99.90;;;;;;5207587;28;20430;-80
2022/05/31 06:24:30;;;;;;;1.58;1.20;;;20.80;99.90;;;;;;5190557;28;20041;-79
2022/05/31 06:27:02;;;;;;;0.98;0.98;;;21.40;99.90;;;;;;5207064;28;20025;-76
2022/05/31 06:29:36;;;;;;;2.78;1.00;;;21.50;99.90;;;;;;5212693;28;20062;-78
2022/05/31 06:32:08;;;;;;;0.85;0.85;;;22.10;99.90;;;;;;5223858;28;20047;-76
2022/05/31 06:34:40;;;;;;;0.70;0.70;;;21.90;99.90;;;;;;5232538;28;20044;-77
2022/05/31 06:37:15;;;;;;;1.48;1.27;;;22.00;99.90;;;;;;5219455;28;20031;-76
2022/05/31 06:39:46;;;;;;;1.35;0.90;;;22.00;99.90;;;;;;5226408;28;20557;-78
2022/05/31 06:42:21;;;;;;;0.93;0.82;;;22.40;99.90;;;;;;5215209;28;20022;-77
2022/05/31 06:44:52;;;;;;;0.90;0.90;;;22.60;99.90;;;;;;5206195;28;20021;-78
2022/05/31 06:47:28;;;;;;;0.63;0.63;;;23.50;99.90;;;;;;5219416;28;20428;-77
2022/05/31 06:50:04;;;;;;;1.10;0.65;;;23.60;99.90;;;;;;5226539;28;20025;-74
2022/05/31 06:58:18;;;;;;;0.90;0.90;;;23.70;99.90;;;;;;5225885;28;20035;-77
2022/05/31 07:00:49;;;;;;;1.08;0.98;;;23.60;99.90;;;;;;5222171;28;20567;-79
2022/05/31 07:03:20;;;;;;;0.68;0.68;;;23.60;99.90;;;;;;5221018;28;20037;-79
2022/05/31 07:05:58;;;;;;;1.50;1.08;;;22.90;99.90;;;;;;5186884;28;20060;-77
2022/05/31 07:08:30;;;;;;;0.60;0.60;;;22.40;99.90;;;;;;5221825;28;20032;-77
2022/05/31 07:11:05;;;;;;;0.90;0.88;;;21.30;99.90;;;;;;5223901;28;20025;-77
2022/05/31 07:13:42;;;;;;;3.83;0.70;;;21.50;99.90;;;;;;5209356;28;20029;-77
2022/05/31 07:16:13;;;;;;;1.00;0.80;;;21.50;99.90;;;;;;5221214;28;20016;-76
2022/05/31 07:18:45;;;;;;;0.80;0.80;;;21.40;99.90;;;;;;5225504;28;20040;-77
2022/05/31 07:21:16;;;;;;;1.33;1.23;;;21.60;99.90;;;;;;5193246;28;20034;-78
2022/05/31 07:23:47;;;;;;;2.50;1.10;;;21.90;99.90;;;;;;5194172;28;20021;-77
2022/05/31 07:26:21;;;;;;;0.80;0.80;;;22.40;99.90;;;;;;5245651;28;20029;-77
2022/05/31 07:28:56;;;;;;;1.05;0.80;;;22.70;99.90;;;;;;5216897;28;20026;-79
2022/05/31 07:31:27;;;;;;;;;;;23.10;99.90;;;;;;5217510;28;20441;-78
2022/05/31 07:33:58;;;;;;;1.17;0.90;;;22.70;99.90;;;;;;5221096;28;19943;-77
2022/05/31 07:36:32;;;;;;;1.23;0.90;;;23.00;99.90;;;;;;5179335;28;20069;-77
2022/05/31 07:39:04;;;;;;;0.82;0.82;;;22.40;99.90;;;;;;5185206;28;20350;-77
2022/05/31 07:41:37;;;;;;;1.00;0.82;;;22.50;99.90;;;;;;5183908;28;20032;-78
2022/05/31 07:44:10;;;;;;;0.80;0.80;;;22.40;99.90;;;;;;5188927;28;20033;-78
2022/05/31 07:46:41;;;;;;;1.00;1.00;;;22.30;99.90;;;;;;5188865;28;20041;-75
2022/05/31 07:49:16;;;;;;;1.45;1.35;;;22.60;99.90;;;;;;5187547;28;20040;-77
2022/05/31 07:51:47;;;;;;;;;;;23.00;99.90;;;;;;5188908;28;20026;-75
2022/05/31 07:54:21;;;;;;;0.68;0.68;;;23.40;99.90;;;;;;5187520;28;19912;-76
2022/05/31 07:56:52;;;;;;;1.60;0.90;;;23.70;99.90;;;;;;5186327;28;20025;-80
2022/05/31 07:59:30;;;;;;;2.25;0.82;;;24.10;99.90;;;;;;5153446;28;20034;-76
2022/05/31 08:02:01;;;;;;;3.13;0.93;;;24.00;99.90;;;;;;5183653;28;20026;-79
2022/05/31 08:04:38;;;;;;;0.85;0.85;;;24.00;99.90;;;;;;5175323;28;20149;-77
2022/05/31 08:07:09;;;;;;;1.00;0.90;;;24.00;99.90;;;;;;5180038;28;20022;-76
2022/05/31 08:09:40;;;;;;;0.82;0.82;;;23.70;99.90;;;;;;5176205;28;20029;-77
2022/05/31 08:12:12;;;;;;;0.70;0.70;;;23.30;99.90;;;;;;5187473;28;20030;-78
2022/05/31 08:14:46;;;;;;;0.93;0.73;;;23.30;99.90;;;;;;5184687;28;20307;-75
2022/05/31 08:17:21;;;;;;;0.93;0.80;;;23.50;99.90;;;;;;5183461;28;20036;-75
2022/05/31 08:19:56;;;;;;;0.82;0.82;;;23.70;99.90;;;;;;5185572;28;20275;-74
2022/05/31 08:22:27;;;;;;;1.15;1.00;;;23.80;99.90;;;;;;5167736;28;20032;-78
2022/05/31 08:25:04;;;;;;;0.90;0.90;;;23.40;99.90;;;;;;5151268;28;20048;-78
2022/05/31 08:27:36;;;;;;;1.25;1.10;;;23.70;99.90;;;;;;5167528;28;20038;-76
2022/05/31 08:30:11;;;;;;;0.80;0.80;;;24.20;99.90;;;;;;5171087;28;20497;-81
2022/05/31 08:32:45;;;;;;;;;;;24.20;99.90;;;;;;5177705;28;20034;-75
2022/05/31 08:35:21;;;;;;;0.80;0.80;;;23.60;99.90;;;;;;5209588;28;19916;-78
2022/05/31 08:37:55;;;;;;;0.85;0.82;;;24.00;99.90;;;;;;5228930;28;20541;-79
2022/05/31 08:40:29;;;;;;;4.13;1.20;;;24.00;99.90;;;;;;5229412;28;20028;-76
2022/05/31 08:43:06;;;;;;;1.63;1.30;;;24.10;99.90;;;;;;5226510;28;20028;-77
2022/05/31 08:45:47;;;;;;;1.38;1.02;;;24.70;99.90;;;;;;5213267;28;20025;-79
2022/05/31 08:48:24;;;;;;;1.45;1.35;;;24.90;99.90;;;;;;5178921;28;20033;-79
2022/05/31 08:57:13;;;;;;;1.27;1.08;;;24.60;99.90;;;;;;5228837;28;20047;-78
2022/05/31 08:59:57;;;;;;;0.93;0.90;;;24.30;99.90;;;;;;5217866;28;20040;-79
2022/05/31 09:02:47;;;;;;;0.73;0.73;;;24.40;99.90;;;;;;5229626;28;20025;-79
2022/05/31 09:05:29;;;;;;;1.75;0.90;;;24.70;99.90;;;;;;5193582;28;20049;-77
2022/05/31 09:08:36;;;;;;;1.05;0.80;;;24.50;99.90;;;;;;5209443;28;20043;-77
2022/05/31 09:11:08;;;;;;;1.30;1.20;;;24.60;99.90;;;;;;5217734;28;20220;-79
2022/05/31 09:14:02;;;;;;;0.90;0.80;;;24.30;99.90;;;;;;5227954;28;20032;-78
2022/05/31 09:17:03;;;;;;;3.42;0.93;;;24.10;99.90;;;;;;5210999;28;20025;-77
2022/05/31 09:20:06;;;;;;;0.88;0.88;;;24.30;99.90;;;;;;5210921;28;20025;-76
2022/05/31 09:22:47;;;;;;;0.80;0.80;;;24.80;99.90;;;;;;5193373;28;20031;-80
2022/05/31 09:25:18;;;;;;;1.10;1.00;;;25.60;99.90;;;;;;5228621;28;20024;-78
2022/05/31 09:27:53;;;;;;;0.95;0.95;;;25.40;99.90;;;;;;5229233;28;20043;-81
2022/05/31 09:30:44;;;;;;;0.98;0.82;;;25.30;99.90;;;;;;5222422;28;20033;-78
2022/05/31 09:33:22;;;;;;;1.13;0.90;;;25.30;99.90;;;;;;5229213;28;20029;-79
2022/05/31 09:35:57;;;;;;;1.00;0.90;;;26.00;99.90;;;;;;5227173;28;20040;-78
2022/05/31 09:38:48;;;;;;;1.17;1.08;;;26.10;99.90;;;;;;5230663;28;20444;-80
2022/05/31 09:41:24;;;;;;;0.93;0.93;;;26.40;99.90;;;;;;5216835;28;20567;-77
2022/05/31 09:44:06;;;;;;;0.93;0.90;;;26.40;99.90;;;;;;5223680;28;20036;-82
2022/05/31 09:47:10;;;;;;;1.10;0.80;;;27.00;99.90;;;;;;5208596;28;20039;-76
2022/05/31 09:49:44;;;;;;;0.70;0.70;;;26.70;99.90;;;;;;5212451;28;20460;-78
2022/05/31 09:52:42;;;;;;;0.82;0.80;;;27.30;99.90;;;;;;5229054;28;20035;-76
2022/05/31 09:58:12;;;;;;;0.80;0.80;;;26.20;99.90;;;;;;5228645;28;20031;-76
2022/05/31 10:01:12;;;;;;;1.13;0.82;;;26.10;99.90;;;;;;5228310;28;20476;-79
2022/05/31 10:04:08;;;;;;;1.10;1.00;;;26.70;99.90;;;;;;5228353;28;20027;-78
2022/05/31 10:07:02;;;;;;;0.70;0.70;;;26.50;99.90;;;;;;5200098;28;20649;-77
2022/05/31 10:09:36;;;;;;;1.80;0.95;;;27.00;99.90;;;;;;5210643;28;20031;-77
2022/05/31 10:12:13;;;;;;;0.93;0.90;;;27.40;99.90;;;;;;5238267;28;20341;-76
2022/05/31 10:14:48;;;;;;;0.68;0.68;;;27.00;99.90;;;;;;5230309;28;20028;-81
2022/05/31 10:17:35;;;;;;;0.77;0.77;;;27.60;99.90;;;;;;5238004;28;20025;-78
2022/05/31 10:20:25;;;;;;;0.80;0.80;;;27.60;99.90;;;;;;5218832;28;20613;-79
2022/05/31 10:22:58;;;;;;;0.80;0.80;;;27.70;99.90;;;;;;5213985;28;20497;-78
2022/05/31 10:25:40;;;;;;;0.80;0.80;;;28.50;99.90;;;;;;5208755;28;20025;-77
2022/05/31 10:28:22;;;;;;;1.33;0.82;;;27.80;99.90;;;;;;5227534;28;20033;-76
2022/05/31 10:31:14;;;;;;;1.63;0.88;;;27.50;99.90;;;;;;5221062;28;20026;-82
2022/05/31 10:34:01;;;;;;;0.90;0.90;;;27.70;99.90;;;;;;5225600;28;20379;-78
2022/05/31 10:36:52;;;;;;;0.88;0.88;;;27.70;99.90;;;;;;5225049;28;20041;-80
2022/05/31 10:39:28;;;;;;;0.90;0.90;;;27.80;99.90;;;;;;5226260;28;20335;-79
2022/05/31 10:42:02;;;;;;;0.70;0.70;;;28.80;99.90;;;;;;5224479;28;20037;-78
2022/05/31 10:44:43;;;;;;;;;;;29.90;99.90;;;;;;5217537;28;20020;-77
2022/05/31 10:47:24;;;;;;;1.23;0.70;;;30.30;99.90;;;;;;5226734;28;20198;-78
2022/05/31 10:49:55;;;;;;;0.80;0.80;;;30.70;99.90;;;;;;5226920;28;20029;-77
2022/05/31 10:53:03;;;;;;;1.30;1.20;;;30.50;99.90;;;;;;5227639;28;20031;-75
2022/05/31 10:55:45;;;;;;;0.85;0.85;;;31.20;99.90;;;;;;5214016;28;20506;-79
2022/05/31 10:59:06;;;;;;;1.27;0.85;;;30.80;99.90;;;;;;5223344;28;20021;-77
2022/05/31 11:01:49;;;;;;;0.70;0.70;;;30.90;99.90;;;;;;5197983;28;20033;-78
2022/05/31 11:04:45;;;;;;;1.13;0.93;;;33.30;99.90;;;;;;5208287;28;20027;-78
2022/05/31 11:11:27;;;;;;;0.80;0.80;;;31.80;99.90;;;;;;5219577;28;20041;-78
2022/05/31 11:13:59;;;;;;;2.00;1.10;;;33.10;99.90;;;;;;5229637;28;20025;-80
2022/05/31 11:17:04;;;;;;;1.27;1.08;;;32.40;99.90;;;;;;5231975;28;20031;-78
2022/05/31 11:20:00;;;;;;;1.08;0.98;;;32.70;99.90;;;;;;5200671;28;20040;-79
2022/05/31 11:22:40;;;;;;;0.98;0.98;;;33.40;99.90;;;;;;5212036;28;20033;-78
2022/05/31 11:25:37;;;;;;;1.05;1.00;;;32.10;99.90;;;;;;5230579;28;20021;-77
2022/05/31 11:28:39;;;;;;;0.90;0.90;;;33.20;99.90;;;;;;5212158;28;20027;-79
2022/05/31 11:31:31;;;;;;;1.00;0.90;;;33.90;99.90;;;;;;5210741;28;20468;-83
2022/05/31 11:34:15;;;;;;;1.70;0.73;;;33.20;99.90;;;;;;5220340;28;20035;-79
2022/05/31 11:37:05;;;;;;;1.52;1.23;;;33.10;99.90;;;;;;5194824;28;20040;-79
2022/05/31 11:40:45;;;;;;;0.90;0.90;;;33.20;99.90;;;;;;5195528;28;20044;-77
2022/05/31 11:43:28;;;;;;;0.80;0.80;;;31.60;99.90;;;;;;5163442;28;20145;-79
2022/05/31 11:46:14;;;;;;;0.80;0.80;;;31.90;99.90;;;;;;5163851;28;20390;-81
2022/05/31 11:49:07;;;;;;;0.80;0.80;;;31.10;99.90;;;;;;5158654;28;20037;-79
2022/05/31 11:51:58;;;;;;;0.80;0.80;;;30.70;99.90;;;;;;5160332;28;20040;-76
2022/05/31 11:55:25;;;;;;;0.75;0.75;;;31.50;99.90;;;;;;5186865;28;20275;-81
2022/05/31 11:58:07;;;;;;;0.95;0.95;;;32.80;99.90;;;;;;5187862;28;20032;-77
2022/05/31 12:00:44;;;;;;;0.88;0.88;;;33.70;99.90;;;;;;5196525;28;20036;-80
2022/05/31 12:03:20;;;;;;;0.80;0.80;;;34.00;99.90;;;;;;5181574;28;20026;-79
2022/05/31 12:05:57;;;;;;;0.95;0.95;;;34.50;99.90;;;;;;5183291;28;20057;-78
2022/05/31 12:08:36;;;;;;;1.13;1.02;;;34.40;99.90;;;;;;5183274;28;20033;-78
2022/05/31 12:11:55;;;;;;;1.58;0.90;;;33.80;99.90;;;;;;5194505;28;20033;-78
2022/05/31 12:14:31;;;;;;;0.95;0.95;;;34.10;99.90;;;;;;5187474;28;20033;-77
2022/05/31 12:17:06;;;;;;;1.02;0.90;;;34.70;99.30;;;;;;5187316;28;20022;-78
2022/05/31 12:19:51;;;;;;;0.60;0.60;;;34.80;99.90;;;;;;5190715;28;20507;-78
2022/05/31 12:22:36;;;;;;;0.88;0.88;;;35.90;97.80;;;;;;5208271;28;20032;-83
2022/05/31 12:25:24;;;;;;;1.23;1.13;;;35.10;98.20;;;;;;5208802;28;20027;-78
2022/05/31 12:28:21;;;;;;;5.18;1.10;;;34.60;98.80;;;;;;5207112;28;20029;-76
2022/05/31 12:31:09;;;;;;;1.05;0.80;;;34.50;97.50;;;;;;5182391;28;20019;-79
2022/05/31 12:33:49;;;;;;;0.75;0.75;;;34.00;97.80;;;;;;5184280;28;20024;-80
2022/05/31 12:36:23;;;;;;;0.93;0.93;;;34.10;98.30;;;;;;5214068;28;20036;-80
2022/05/31 12:38:54;;;;;;;;;;;35.30;97.90;;;;;;5217135;28;20245;-77
2022/05/31 12:41:34;;;;;;;0.82;0.82;;;35.50;96.70;;;;;;5226270;28;20378;-78
2022/05/31 12:44:27;;;;;;;0.82;0.82;;;33.90;97.40;;;;;;5211327;28;20492;-78
2022/05/31 12:47:21;;;;;;;1.10;1.00;;;34.00;97.70;;;;;;5220929;28;20019;-77
2022/05/31 12:50:21;;;;;;;1.02;1.02;;;34.40;97.30;;;;;;5229156;28;20037;-81
2022/05/31 12:55:42;;;;;;;3.13;0.85;;;33.40;97.20;;;;;;5244578;28;20025;-81
2022/05/31 12:58:35;;;;;;;0.98;0.80;;;34.30;97.20;;;;;;5215563;28;20337;-77
2022/05/31 13:01:15;;;;;;;0.90;0.80;;;33.80;97.30;;;;;;5219929;28;20039;-80
2022/05/31 13:03:49;;;;;;;0.80;0.80;;;33.80;97.10;;;;;;5224408;28;20506;-81
2022/05/31 13:06:45;;;;;;;0.90;0.90;;;34.30;96.80;;;;;;5215029;28;20047;-80
2022/05/31 13:09:33;;;;;;;1.27;0.90;;;33.20;97.00;;;;;;5210704;28;20025;-76
2022/05/31 13:21:06;;;;;;;1.50;0.80;;;33.70;96.60;;;;;;5224699;28;20033;-79
2022/05/31 13:23:43;;;;;;;0.85;0.85;;;33.60;96.70;;;;;;5211967;28;20048;-78
2022/05/31 13:26:19;;;;;;;0.68;0.68;;;34.90;95.50;;;;;;5222069;28;20027;-79
2022/05/31 13:28:57;;;;;;;0.80;0.80;;;34.60;96.20;;;;;;5220656;28;20533;-79
2022/05/31 13:31:33;;;;;;;0.55;0.55;;;33.00;96.50;;;;;;5223879;28;20047;-80
2022/05/31 13:34:10;;;;;;;0.82;0.82;;;32.60;97.20;;;;;;5225636;28;20047;-76
2022/05/31 13:36:48;;;;;;;0.77;0.77;;;33.20;96.60;;;;;;5229730;28;20347;-80
2022/05/31 13:39:22;;;;;;;0.60;0.60;;;33.80;96.60;;;;;;5213998;28;20657;-79
2022/05/31 13:42:02;;;;;;;0.90;0.90;;;32.80;97.40;;;;;;5195560;28;20037;-78
2022/05/31 13:44:39;;;;;;;0.70;0.70;;;32.40;97.00;;;;;;5207344;28;20342;-79
2022/05/31 13:47:18;;;;;;;0.65;0.65;;;31.70;97.50;;;;;;5226114;28;20031;-79
2022/05/31 13:49:49;;;;;;;1.13;1.02;;;32.50;97.70;;;;;;5189281;28;20043;-78
2022/05/31 13:52:25;;;;;;;2.05;0.80;;;33.80;96.90;;;;;;5219155;28;20040;-80
2022/05/31 13:55:11;;;;;;;1.00;0.80;;;33.90;96.50;;;;;;5225212;28;20353;-76
2022/05/31 13:57:55;;;;;;;0.90;0.90;;;33.80;96.70;;;;;;5218450;28;20048;-79
2022/05/31 14:00:43;;;;;;;1.85;0.80;;;34.20;96.40;;;;;;5208121;28;20315;-79
2022/05/31 14:03:40;;;;;;;0.95;0.95;;;34.10;96.40;;;;;;5226251;28;20039;-75
2022/05/31 14:06:17;;;;;;;0.80;0.80;;;34.40;96.60;;;;;;5192847;28;20045;-80
2022/05/31 14:08:56;;;;;;;1.13;0.80;;;35.00;96.00;;;;;;5215537;28;20025;-78
2022/05/31 14:11:36;;;;;;;0.80;0.80;;;34.20;96.50;;;;;;5225078;28;20020;-78
2022/05/31 14:14:29;;;;;;;0.73;0.73;;;33.50;97.20;;;;;;5190201;28;20067;-81
2022/05/31 14:17:03;;;;;;;0.77;0.77;;;34.40;97.20;;;;;;5223578;28;20028;-81
2022/05/31 14:19:41;;;;;;;0.80;0.80;;;34.00;96.50;;;;;;5203114;28;20033;-80
2022/05/31 14:22:31;;;;;;;0.73;0.73;;;33.50;96.90;;;;;;5208801;28;20035;-80